createdAt,value
2017-12-29T00:01:39.309Z,99121.48
2017-12-29T00:04:40.592Z,99122.25
2017-12-29T00:07:41.850Z,99126.06
2017-12-29T00:10:43.192Z,99123.06
2017-12-29T00:13:45.276Z,99111.95
2017-12-29T00:16:46.585Z,99117.24
2017-12-29T00:19:47.929Z,99118.27
2017-12-29T00:22:49.463Z,99126.07
2017-12-29T00:25:50.816Z,99114.74
2017-12-29T00:28:52.154Z,99122.90
2017-12-29T00:31:53.866Z,99127.14
2017-12-29T00:34:55.921Z,99130.38
2017-12-29T00:37:57.959Z,99139.25
2017-12-29T00:40:59.303Z,99133.89
2017-12-29T00:44:00.602Z,99131.39
2017-12-29T00:47:01.995Z,99141.05
2017-12-29T00:50:03.272Z,99138.98
2017-12-29T00:53:04.558Z,99145.27
2017-12-29T00:56:05.884Z,99148.03
2017-12-29T00:59:07.904Z,99153.13
2017-12-29T01:02:09.222Z,99156.86
2017-12-29T01:05:10.519Z,99159.25
2017-12-29T01:08:12.866Z,99160.53
2017-12-29T01:11:14.259Z,99162.41
2017-12-29T01:14:15.589Z,99170.39
2017-12-29T01:17:16.928Z,99182.62
2017-12-29T01:20:18.271Z,99189.16
2017-12-29T01:23:19.619Z,99180.63
2017-12-29T01:26:20.855Z,99183.93
2017-12-29T01:29:22.195Z,99194.20
2017-12-29T01:32:23.473Z,99188.44
2017-12-29T01:35:24.800Z,99196.47
2017-12-29T01:38:26.087Z,99179.68
2017-12-29T01:41:28.124Z,99183.07
2017-12-29T01:44:29.462Z,99182.73
2017-12-29T01:51:09.244Z,99170.42
2017-12-29T01:54:11.295Z,99179.55
2017-12-29T01:57:12.655Z,99176.36
2017-12-29T02:00:14.709Z,99177.99
2017-12-29T02:03:16.093Z,99173.67
2017-12-29T02:06:17.440Z,99188.34
2017-12-29T02:09:18.745Z,99182.52
2017-12-29T02:12:20.103Z,99185.58
2017-12-29T02:15:21.550Z,99183.48
2017-12-29T02:18:22.889Z,99188.09
2017-12-29T02:21:24.248Z,99177.83
2017-12-29T02:24:25.583Z,99187.31
2017-12-29T02:27:26.886Z,99190.88
2017-12-29T02:30:28.973Z,99181.05
2017-12-29T02:33:30.298Z,99185.70
2017-12-29T02:36:32.406Z,99178.03
2017-12-29T02:39:33.772Z,99178.71
2017-12-29T02:42:35.148Z,99174.02
2017-12-29T02:45:36.534Z,99176.63
2017-12-29T02:48:38.599Z,99183.89
2017-12-29T02:51:40.684Z,99187.44
2017-12-29T02:54:42.049Z,99190.20
2017-12-29T02:57:43.357Z,99186.97
2017-12-29T03:00:45.404Z,99185.30
2017-12-29T03:03:46.751Z,99177.14
2017-12-29T03:06:54.308Z,99185.59
2017-12-29T03:09:55.610Z,99179.86
2017-12-29T03:12:56.951Z,99173.53
2017-12-29T03:15:58.227Z,99176.52
2017-12-29T03:19:00.317Z,99184.34
2017-12-29T03:22:01.718Z,99179.95
2017-12-29T03:25:03.099Z,99175.80
2017-12-29T03:28:05.146Z,99185.78
2017-12-29T03:31:06.479Z,99170.23
2017-12-29T03:34:07.788Z,99174.69
2017-12-29T03:37:09.089Z,99167.33
2017-12-29T03:40:10.399Z,99165.67
2017-12-29T03:43:11.703Z,99172.27
2017-12-29T03:46:13.022Z,99169.45
2017-12-29T03:49:14.323Z,99169.39
2017-12-29T03:52:16.406Z,99162.09
2017-12-29T03:55:17.686Z,99172.55
2017-12-29T03:58:18.991Z,99162.23
2017-12-29T04:01:21.067Z,99162.18
2017-12-29T04:04:22.511Z,99162.47
2017-12-29T04:07:24.791Z,99153.52
2017-12-29T04:10:26.040Z,99158.94
2017-12-29T04:13:27.382Z,99162.09
2017-12-29T04:16:29.426Z,99160.82
2017-12-29T04:19:30.778Z,99155.23
2017-12-29T04:22:32.098Z,99168.66
2017-12-29T04:25:33.435Z,99172.34
2017-12-29T04:28:34.779Z,99174.18
2017-12-29T04:31:36.127Z,99167.04
2017-12-29T04:34:38.305Z,99173.33
2017-12-29T04:37:39.624Z,99186.48
2017-12-29T04:40:41.675Z,99178.99
2017-12-29T04:43:42.971Z,99181.62
2017-12-29T04:46:44.297Z,99181.81
2017-12-29T04:49:45.591Z,99186.31
2017-12-29T04:52:46.905Z,99203.24
2017-12-29T04:55:48.220Z,99195.02
2017-12-29T04:58:49.499Z,99198.33
2017-12-29T05:01:50.783Z,99202.09
2017-12-29T05:04:52.094Z,99212.58
2017-12-29T05:07:53.403Z,99213.48
2017-12-29T05:10:54.791Z,99213.42
2017-12-29T05:13:56.860Z,99214.17
2017-12-29T05:16:58.878Z,99218.90
2017-12-29T05:20:00.260Z,99206.36
2017-12-29T05:23:01.623Z,99208.81
2017-12-29T05:26:03.664Z,99220.73
2017-12-29T05:29:04.967Z,99212.41
2017-12-29T05:32:06.255Z,99232.73
2017-12-29T05:35:07.607Z,99231.80
2017-12-29T05:38:08.974Z,99221.52
2017-12-29T05:41:10.427Z,99232.86
2017-12-29T05:44:11.726Z,99222.14
2017-12-29T05:47:13.048Z,99211.83
2017-12-29T05:50:15.144Z,99217.30
2017-12-29T05:53:16.575Z,99210.19
2017-12-29T05:56:17.896Z,99205.30
2017-12-29T05:59:19.206Z,99205.83
2017-12-29T06:02:20.554Z,99220.98
2017-12-29T06:05:21.830Z,99224.42
2017-12-29T06:08:23.162Z,99212.78
2017-12-29T06:11:24.535Z,99215.56
2017-12-29T06:14:25.877Z,99212.45
2017-12-29T06:17:27.167Z,99214.16
2017-12-29T06:20:29.220Z,99213.89
2017-12-29T06:23:31.318Z,99217.59
2017-12-29T06:26:32.615Z,99217.73
2017-12-29T06:29:34.004Z,99211.19
2017-12-29T06:32:36.035Z,99212.77
2017-12-29T06:35:38.106Z,99217.30
2017-12-29T06:38:39.390Z,99210.92
2017-12-29T06:41:41.445Z,99213.81
2017-12-29T06:44:43.484Z,99226.09
2017-12-29T06:47:44.792Z,99202.64
2017-12-29T06:50:46.092Z,99208.05
2017-12-29T06:53:47.407Z,99207.93
2017-12-29T06:56:48.740Z,99225.58
2017-12-29T06:59:50.102Z,99206.75
2017-12-29T07:02:51.427Z,99198.49
2017-12-29T07:05:53.486Z,99195.45
2017-12-29T07:08:55.579Z,99185.55
2017-12-29T07:11:56.898Z,99201.14
2017-12-29T07:14:58.978Z,99181.22
2017-12-29T07:18:01.058Z,99190.16
2017-12-29T07:21:02.489Z,99199.98
2017-12-29T07:24:04.584Z,99210.05
2017-12-29T07:27:05.872Z,99196.64
2017-12-29T07:30:07.232Z,99187.05
2017-12-29T07:33:08.536Z,99194.06
2017-12-29T07:36:09.887Z,99197.45
2017-12-29T07:39:11.170Z,99183.08
2017-12-29T07:42:12.513Z,99180.60
2017-12-29T07:45:13.926Z,99184.83
2017-12-29T07:48:15.962Z,99178.47
2017-12-29T07:51:17.296Z,99187.61
2017-12-29T07:54:18.608Z,99184.50
2017-12-29T07:57:19.958Z,99179.47
2017-12-29T08:00:21.314Z,99177.50
2017-12-29T08:03:22.846Z,99172.56
2017-12-29T08:06:24.889Z,99175.67
2017-12-29T08:09:26.216Z,99178.20
2017-12-29T08:12:27.539Z,99159.20
2017-12-29T08:15:28.898Z,99161.05
2017-12-29T08:18:30.201Z,99161.13
2017-12-29T08:21:31.572Z,99159.12
2017-12-29T08:24:33.883Z,99166.09
2017-12-29T08:27:35.195Z,99146.41
2017-12-29T08:30:36.548Z,99160.66
2017-12-29T08:33:37.855Z,99167.48
2017-12-29T08:36:39.175Z,99167.36
2017-12-29T08:39:40.480Z,99168.93
2017-12-29T08:42:42.554Z,99162.19
2017-12-29T08:45:44.627Z,99151.06
2017-12-29T08:48:45.951Z,99157.50
2017-12-29T08:51:47.298Z,99154.41
2017-12-29T08:54:48.635Z,99156.03
2017-12-29T08:57:49.941Z,99147.00
2017-12-29T09:00:51.233Z,99162.30
2017-12-29T09:03:52.552Z,99146.36
2017-12-29T09:06:53.903Z,99142.30
2017-12-29T09:09:55.936Z,99140.26
2017-12-29T09:12:57.347Z,99138.27
2017-12-29T09:15:59.561Z,99140.66
2017-12-29T09:19:00.908Z,99115.76
2017-12-29T09:22:02.259Z,99130.46
2017-12-29T09:25:03.576Z,99115.60
2017-12-29T09:28:04.903Z,99122.39
2017-12-29T09:31:06.243Z,99118.32
2017-12-29T09:34:07.578Z,99117.61
2017-12-29T09:37:09.646Z,99111.08
2017-12-29T09:40:11.739Z,99090.98
2017-12-29T09:43:13.034Z,99099.06
2017-12-29T09:46:14.347Z,99088.77
2017-12-29T09:49:15.633Z,99085.18
2017-12-29T09:52:17.022Z,99079.39
2017-12-29T09:55:18.324Z,99082.05
2017-12-29T09:58:19.663Z,99091.17
2017-12-29T10:01:20.964Z,99073.75
2017-12-29T10:04:23.020Z,99068.23
2017-12-29T10:07:25.083Z,99060.47
2017-12-29T10:10:26.373Z,99060.67
2017-12-29T10:13:27.697Z,99061.30
2017-12-29T10:16:29.741Z,99060.09
2017-12-29T10:19:31.196Z,99048.63
2017-12-29T10:22:32.503Z,99045.98
2017-12-29T10:25:33.896Z,99022.67
2017-12-29T10:28:35.252Z,99033.85
2017-12-29T10:31:36.567Z,99017.92
2017-12-29T10:34:37.916Z,99021.36
2017-12-29T10:37:39.205Z,99017.73
2017-12-29T10:40:40.535Z,99016.02
2017-12-29T10:43:43.328Z,99009.73
2017-12-29T10:46:44.654Z,99015.72
2017-12-29T10:49:45.972Z,99011.23
2017-12-29T10:52:47.323Z,99020.30
2017-12-29T10:55:48.661Z,99005.34
2017-12-29T10:58:50.702Z,99005.69
2017-12-29T11:01:52.043Z,99018.81
2017-12-29T11:04:53.335Z,99005.19
2017-12-29T11:07:54.659Z,99012.67
2017-12-29T11:10:56.824Z,98997.59
2017-12-29T11:13:58.891Z,98979.95
2017-12-29T11:17:00.221Z,98976.64
2017-12-29T11:20:01.566Z,98984.84
2017-12-29T11:23:02.955Z,98979.87
2017-12-29T11:26:05.024Z,98977.00
2017-12-29T11:29:07.095Z,98946.27
2017-12-29T11:32:08.447Z,98942.19
2017-12-29T11:35:10.524Z,98934.39
2017-12-29T11:38:12.576Z,98915.45
2017-12-29T11:41:14.658Z,98921.76
2017-12-29T11:44:16.014Z,98910.01
2017-12-29T11:47:17.407Z,98894.94
2017-12-29T11:50:18.738Z,98898.80
2017-12-29T11:53:20.079Z,98863.44
2017-12-29T11:56:21.420Z,98872.94
2017-12-29T11:59:22.735Z,98870.55
2017-12-29T12:02:24.078Z,98853.73
2017-12-29T12:05:25.389Z,98853.62
2017-12-29T12:08:26.727Z,98865.41
2017-12-29T12:11:28.193Z,98853.14
2017-12-29T12:14:29.472Z,98860.13
2017-12-29T12:17:30.837Z,98849.89
2017-12-29T12:20:32.149Z,98833.47
2017-12-29T12:23:33.525Z,98821.80
2017-12-29T12:26:35.843Z,98821.73
2017-12-29T12:29:37.315Z,98817.24
2017-12-29T12:32:39.995Z,98812.33
2017-12-29T12:35:41.723Z,98815.81
2017-12-29T12:38:43.425Z,98813.32
2017-12-29T12:41:44.734Z,98794.22
2017-12-29T12:44:46.807Z,98784.52
2017-12-29T12:47:48.732Z,98781.36
2017-12-29T12:50:50.087Z,98752.09
2017-12-29T12:53:53.311Z,98753.83
2017-12-29T12:56:55.311Z,98748.02
2017-12-29T12:59:56.626Z,98739.43
2017-12-29T13:02:59.391Z,98748.39
2017-12-29T13:06:01.671Z,98726.09
2017-12-29T13:09:03.650Z,98722.36
2017-12-29T13:12:06.370Z,98710.75
2017-12-29T13:15:07.715Z,98710.20
2017-12-29T13:18:09.058Z,98703.04
2017-12-29T13:21:11.600Z,98695.81
2017-12-29T13:24:13.444Z,98676.31
2017-12-29T13:27:14.878Z,98670.89
2017-12-29T13:30:16.224Z,98679.74
2017-12-29T13:33:17.587Z,98665.81
2017-12-29T13:36:18.903Z,98663.27
2017-12-29T13:39:20.987Z,98668.22
2017-12-29T13:42:22.286Z,98653.06
2017-12-29T13:45:23.618Z,98645.27
2017-12-29T13:48:24.945Z,98629.17
2017-12-29T13:51:26.260Z,98617.31
2017-12-29T13:54:28.342Z,98606.51
2017-12-29T13:57:29.704Z,98604.66
2017-12-29T14:00:31.051Z,98583.02
2017-12-29T14:03:32.354Z,98590.61
2017-12-29T14:06:33.705Z,98554.73
2017-12-29T14:09:35.012Z,98544.62
2017-12-29T14:12:36.336Z,98535.34
2017-12-29T14:15:37.638Z,98525.77
2017-12-29T14:18:38.982Z,98517.98
2017-12-29T14:21:40.332Z,98493.80
2017-12-29T14:24:41.657Z,98498.91
2017-12-29T14:27:43.008Z,98482.08
2017-12-29T14:30:44.367Z,98472.14
2017-12-29T14:33:45.723Z,98464.91
2017-12-29T14:36:47.041Z,98443.29
2017-12-29T14:39:49.170Z,98458.58
2017-12-29T14:42:50.488Z,98454.22
2017-12-29T14:45:51.840Z,98434.59
2017-12-29T14:48:53.195Z,98428.49
2017-12-29T14:51:54.496Z,98410.25
2017-12-29T14:54:56.221Z,98397.05
2017-12-29T14:57:57.557Z,98397.51
2017-12-29T15:00:58.926Z,98371.39
2017-12-29T15:04:00.250Z,98384.11
2017-12-29T15:07:01.691Z,98395.21
2017-12-29T15:10:03.102Z,98372.30
2017-12-29T15:13:04.667Z,98352.42
2017-12-29T15:16:06.154Z,98330.78
2017-12-29T15:19:07.459Z,98329.56
2017-12-29T15:22:08.801Z,98338.38
2017-12-29T15:25:10.154Z,98316.54
2017-12-29T15:28:11.560Z,98315.59
2017-12-29T15:31:12.961Z,98310.45
2017-12-29T15:34:14.341Z,98298.84
2017-12-29T15:37:16.446Z,98303.46
2017-12-29T15:40:17.804Z,98293.40
2017-12-29T15:43:19.166Z,98294.64
2017-12-29T15:46:20.589Z,98279.19
2017-12-29T15:49:21.974Z,98274.88
2017-12-29T15:52:23.355Z,98275.74
2017-12-29T15:55:24.702Z,98278.11
2017-12-29T15:58:26.026Z,98288.30
2017-12-29T16:01:49.155Z,98276.88
2017-12-29T16:04:50.503Z,98275.21
2017-12-29T16:07:51.862Z,98260.21
2017-12-29T16:10:53.220Z,98255.48
2017-12-29T16:13:54.561Z,98267.16
2017-12-29T16:16:55.936Z,98249.16
2017-12-29T16:19:57.234Z,98244.95
2017-12-29T16:22:59.573Z,98230.11
2017-12-29T16:26:01.015Z,98224.91
2017-12-29T16:29:02.567Z,98224.09
2017-12-29T16:32:04.041Z,98239.86
2017-12-29T16:35:05.426Z,98238.95
2017-12-29T16:38:07.732Z,98225.25
2017-12-29T16:41:09.119Z,98223.36
2017-12-29T16:44:10.535Z,98213.45
2017-12-29T16:47:11.923Z,98211.73
2017-12-29T16:50:13.541Z,98234.88
2017-12-29T16:53:14.901Z,98213.27
2017-12-29T16:56:16.333Z,98204.09
2017-12-29T16:59:17.718Z,98202.29
2017-12-29T17:02:19.086Z,98201.61
2017-12-29T17:05:21.345Z,98204.77
2017-12-29T17:08:22.728Z,98214.62
2017-12-29T17:11:24.864Z,98222.75
2017-12-29T17:14:26.325Z,98198.38
2017-12-29T17:17:27.667Z,98217.41
2017-12-29T17:20:28.977Z,98216.39
2017-12-29T17:23:31.072Z,98196.98
2017-12-29T17:26:32.413Z,98216.79
2017-12-29T17:29:35.489Z,98207.52
2017-12-29T17:32:37.008Z,98218.06
2017-12-29T17:35:38.466Z,98214.13
2017-12-29T17:38:40.181Z,98206.76
2017-12-29T17:41:42.510Z,98213.37
2017-12-29T17:44:43.901Z,98227.88
2017-12-29T17:47:45.279Z,98231.20
2017-12-29T17:50:47.782Z,98233.61
2017-12-29T17:53:49.758Z,98219.73
2017-12-29T17:56:52.476Z,98211.89
2017-12-29T17:59:54.137Z,98247.57
2017-12-29T18:02:56.548Z,98228.36
2017-12-29T18:05:58.325Z,98236.67
2017-12-29T18:08:59.772Z,98224.61
2017-12-29T18:12:01.578Z,98220.24
2017-12-29T18:15:02.961Z,98229.77
2017-12-29T18:18:04.794Z,98238.30
2017-12-29T18:21:06.616Z,98234.58
2017-12-29T18:24:08.061Z,98250.94
2017-12-29T18:27:09.479Z,98264.60
2017-12-29T18:30:11.945Z,98271.34
2017-12-29T18:33:13.714Z,98268.92
2017-12-29T18:36:15.432Z,98276.53
2017-12-29T18:39:17.741Z,98284.50
2017-12-29T18:42:19.504Z,98282.20
2017-12-29T18:45:20.995Z,98284.88
2017-12-29T18:48:23.147Z,98288.01
2017-12-29T18:51:24.565Z,98291.05
2017-12-29T18:54:26.730Z,98285.70
2017-12-29T18:57:29.035Z,98292.27
2017-12-29T19:00:30.957Z,98293.06
2017-12-29T19:03:32.361Z,98289.50
2017-12-29T19:06:33.846Z,98284.73
2017-12-29T19:09:35.168Z,98293.45
2017-12-29T19:12:36.642Z,98299.90
2017-12-29T19:15:37.970Z,98309.44
2017-12-29T19:18:39.318Z,98310.03
2017-12-29T19:21:40.700Z,98305.37
2017-12-29T19:24:42.039Z,98336.07
2017-12-29T19:27:43.375Z,98323.58
2017-12-29T19:30:44.697Z,98326.20
2017-12-29T19:33:46.139Z,98316.42
2017-12-29T19:36:49.356Z,98330.09
2017-12-29T19:39:50.704Z,98337.40
2017-12-29T19:42:52.379Z,98333.94
2017-12-29T19:45:53.955Z,98341.03
2017-12-29T19:48:55.355Z,98336.78
2017-12-29T19:51:56.691Z,98340.63
2017-12-29T19:54:58.859Z,98338.40
2017-12-29T19:58:00.998Z,98360.71
2017-12-29T20:01:02.508Z,98359.51
2017-12-29T20:04:03.824Z,98366.25
2017-12-29T20:07:05.170Z,98380.56
2017-12-29T20:10:06.479Z,98383.75
2017-12-29T20:13:07.812Z,98393.48
2017-12-29T20:16:09.247Z,98397.92
2017-12-29T20:19:10.583Z,98406.63
2017-12-29T20:22:11.952Z,98406.20
2017-12-29T20:25:14.035Z,98409.56
2017-12-29T20:28:15.565Z,98414.72
2017-12-29T20:31:16.976Z,98414.25
2017-12-29T20:34:18.596Z,98421.30
2017-12-29T20:37:19.932Z,98439.09
2017-12-29T20:40:22.011Z,98438.64
2017-12-29T20:43:23.378Z,98417.83
2017-12-29T20:46:24.686Z,98442.75
2017-12-29T20:49:26.022Z,98418.62
2017-12-29T20:52:27.300Z,98440.98
2017-12-29T20:55:29.414Z,98450.03
2017-12-29T20:58:30.735Z,98439.09
2017-12-29T21:01:32.076Z,98449.72
2017-12-29T21:04:33.392Z,98459.72
2017-12-29T21:07:35.209Z,98453.31
2017-12-29T21:10:36.598Z,98456.29
2017-12-29T21:13:37.970Z,98467.61
2017-12-29T21:16:39.687Z,98462.78
2017-12-29T21:19:41.093Z,98462.87
2017-12-29T21:22:43.151Z,98473.11
2017-12-29T21:25:44.460Z,98482.52
2017-12-29T21:28:45.770Z,98481.63
2017-12-29T21:31:47.083Z,98491.48
2017-12-29T21:34:48.452Z,98493.99
2017-12-29T21:37:50.561Z,98487.63
2017-12-29T21:40:51.975Z,98496.45
2017-12-29T21:43:53.311Z,98509.34
2017-12-29T21:46:54.649Z,98529.05
2017-12-29T21:49:56.063Z,98531.13
2017-12-29T21:52:57.552Z,98531.27
2017-12-29T21:55:59.349Z,98529.29
2017-12-29T21:59:01.412Z,98542.00
2017-12-29T22:02:03.491Z,98543.22
2017-12-29T22:05:05.579Z,98557.30
2017-12-29T22:08:06.966Z,98552.56
2017-12-29T22:11:08.751Z,98566.46
2017-12-29T22:14:10.829Z,98569.96
2017-12-29T22:17:13.274Z,98574.55
2017-12-29T22:20:14.620Z,98580.98
2017-12-29T22:23:15.963Z,98589.31
2017-12-29T22:26:17.722Z,98592.23
2017-12-29T22:29:19.095Z,98602.03
2017-12-29T22:32:20.826Z,98602.53
2017-12-29T22:35:23.410Z,98595.59
2017-12-29T22:38:24.790Z,98603.61
2017-12-29T22:41:26.145Z,98620.38
2017-12-29T22:44:27.471Z,98617.55
2017-12-29T22:47:29.535Z,98610.86
2017-12-29T22:50:30.906Z,98632.84
2017-12-29T22:53:32.221Z,98639.20
2017-12-29T22:56:33.662Z,98640.30
2017-12-29T22:59:34.987Z,98642.75
2017-12-29T23:02:37.057Z,98640.49
2017-12-29T23:05:39.169Z,98642.70
2017-12-29T23:08:40.519Z,98630.16
2017-12-29T23:11:41.876Z,98648.53
2017-12-29T23:14:43.177Z,98658.87
2017-12-29T23:17:45.263Z,98652.45
2017-12-29T23:20:46.592Z,98666.52
2017-12-29T23:23:48.714Z,98672.54
2017-12-29T23:26:50.088Z,98672.59
2017-12-29T23:29:51.432Z,98675.66
2017-12-29T23:32:52.782Z,98680.02
2017-12-29T23:35:54.108Z,98674.50
2017-12-29T23:38:55.486Z,98694.80
2017-12-29T23:41:56.834Z,98697.52
2017-12-29T23:44:58.187Z,98702.82
2017-12-29T23:47:59.551Z,98704.09
2017-12-29T23:51:00.936Z,98715.13
2017-12-29T23:54:03.091Z,98707.63
2017-12-29T23:57:05.138Z,98723.25
